Observation data for Seminole on 08/11/2019      Previous  Date       Current Mesonet Observations  Soil Data  Daily Summary Page  Observations in Plain Language
KSM1 110500Z 19007KT 30/14 A3001 RMK A01 T02960140  RH  040%=      5-min Rain = 0
KSM1 110505Z 19008KT 29/14 A3001 RMK A01 T02940140  RH  041%=      5-min Rain = 0
KSM1 110510Z 19009KT 29/14 A3001 RMK A01 T02940140  RH  041%=      5-min Rain = 0
KSM1 110515Z 19008KT 29/14 A3001 RMK A01 T02930141  RH  041%=      5-min Rain = 0
KSM1 110520Z 19008KT 29/14 A3001 RMK A01 T02910141  RH  042%=      5-min Rain = 0
KSM1 110525Z 18009KT 29/14 A3001 RMK A01 T02900141  RH  042%=      5-min Rain = 0
KSM1 110530Z 18008KT 29/14 A3001 RMK A01 T02890141  RH  042%=      5-min Rain = 0
KSM1 110535Z 18008KT 29/14 A3001 RMK A01 T02870142  RH  043%=      5-min Rain = 0
KSM1 110540Z 18008KT 29/14 A3001 RMK A01 T02870141  RH  043%=      5-min Rain = 0
KSM1 110545Z 18008KT 29/14 A3001 RMK A01 T02860141  RH  043%=      5-min Rain = 0
KSM1 110550Z 18008KT 29/14 A3001 RMK A01 T02850141  RH  043%=      5-min Rain = 0
KSM1 110555Z 18008KT 28/14 A3001 RMK A01 T02840141  RH  044%=      5-min Rain = 0
KSM1 110600Z 18008KT 28/14 A3001 RMK A01 T02830141  RH  044%=      5-min Rain = 0
KSM1 110605Z 18008KT 28/14 A3001 RMK A01 T02820141  RH  044%=      5-min Rain = 0
KSM1 110610Z 18008KT 28/14 A3001 RMK A01 T02810141  RH  044%=      5-min Rain = 0
KSM1 110615Z 18007KT 28/14 A3001 RMK A01 T02800141  RH  045%=      5-min Rain = 0
KSM1 110620Z 17006KT 28/14 A3001 RMK A01 T02770142  RH  045%=      5-min Rain = 0
KSM1 110625Z 17006KT 28/14 A3001 RMK A01 T02750143  RH  046%=      5-min Rain = 0
KSM1 110630Z 16007KT 27/14 A3001 RMK A01 T02720144  RH  047%=      5-min Rain = 0
KSM1 110635Z 16006KT 27/15 A3001 RMK A01 T02690145  RH  048%=      5-min Rain = 0
KSM1 110640Z 15006KT 27/15 A3001 RMK A01 T02660145  RH  050%=      5-min Rain = 0
KSM1 110645Z 14005KT 26/15 A3001 RMK A01 T02620146  RH  051%=      5-min Rain = 0
KSM1 110650Z 14005KT 26/15 A3001 RMK A01 T02570148  RH  053%=      5-min Rain = 0
KSM1 110655Z 14004KT 25/15 A3001 RMK A01 T02530148  RH  054%=      5-min Rain = 0
KSM1 110700Z 15004KT 25/15 A3001 RMK A01 T02520148  RH  055%=      5-min Rain = 0
KSM1 110705Z 15005KT 25/15 A3001 RMK A01 T02510147  RH  055%=      5-min Rain = 0
KSM1 110710Z 14005KT 25/15 A3001 RMK A01 T02490147  RH  055%=      5-min Rain = 0
KSM1 110715Z 15005KT 25/15 A3001 RMK A01 T02480147  RH  056%=      5-min Rain = 0
KSM1 110720Z 15005KT 25/15 A3001 RMK A01 T02470147  RH  056%=      5-min Rain = 0
KSM1 110725Z 15005KT 25/15 A3001 RMK A01 T02460147  RH  056%=      5-min Rain = 0
KSM1 110730Z 15005KT 25/15 A3001 RMK A01 T02460146  RH  056%=      5-min Rain = 0
KSM1 110735Z 15006KT 25/15 A3001 RMK A01 T02460146  RH  056%=      5-min Rain = 0
KSM1 110740Z 15006KT 25/15 A3001 RMK A01 T02460146  RH  056%=      5-min Rain = 0
KSM1 110745Z 15005KT 25/15 A3002 RMK A01 T02450145  RH  056%=      5-min Rain = 0
KSM1 110750Z 15004KT 24/15 A3002 RMK A01 T02430146  RH  057%=      5-min Rain = 0
KSM1 110755Z 15005KT 24/15 A3002 RMK A01 T02410145  RH  057%=      5-min Rain = 0
KSM1 110800Z 16005KT 24/14 A3002 RMK A01 T02390144  RH  058%=      5-min Rain = 0
KSM1 110805Z 16005KT 24/14 A3002 RMK A01 T02380144  RH  058%=      5-min Rain = 0
KSM1 110810Z 16005KT 24/15 A3002 RMK A01 T02370145  RH  059%=      5-min Rain = 0
KSM1 110815Z 16005KT 24/15 A3002 RMK A01 T02360145  RH  059%=      5-min Rain = 0
KSM1 110820Z 17006KT 24/14 A3002 RMK A01 T02360144  RH  059%=      5-min Rain = 0
KSM1 110825Z 17006KT 24/14 A3002 RMK A01 T02370144  RH  058%=      5-min Rain = 0
KSM1 110830Z 18006KT 24/14 A3002 RMK A01 T02380143  RH  058%=      5-min Rain = 0
KSM1 110835Z 18007KT 24/14 A3001 RMK A01 T02410141  RH  056%=      5-min Rain = 0
KSM1 110840Z 18007KT 25/14 A3001 RMK A01 T02450139  RH  054%=      5-min Rain = 0
KSM1 110845Z 18006KT 25/14 A3001 RMK A01 T02490137  RH  052%=      5-min Rain = 0
KSM1 110850Z 18006KT 25/14 A3002 RMK A01 T02510135  RH  051%=      5-min Rain = 0
KSM1 110855Z 18007KT 25/13 A3002 RMK A01 T02530134  RH  050%=      5-min Rain = 0
KSM1 110900Z 17007KT 25/13 A3002 RMK A01 T02540134  RH  049%=      5-min Rain = 0
KSM1 110905Z 17006KT 25/13 A3002 RMK A01 T02530133  RH  049%=      5-min Rain = 0
KSM1 110910Z 17005KT 25/13 A3002 RMK A01 T02510133  RH  050%=      5-min Rain = 0
KSM1 110915Z 18005KT 25/13 A3002 RMK A01 T02490133  RH  051%=      5-min Rain = 0
KSM1 110920Z 18005KT 25/13 A3002 RMK A01 T02470133  RH  051%=      5-min Rain = 0
KSM1 110925Z 18005KT 25/13 A3002 RMK A01 T02460133  RH  052%=      5-min Rain = 0
KSM1 110930Z 19006KT 25/13 A3002 RMK A01 T02450133  RH  052%=      5-min Rain = 0
KSM1 110935Z 20005KT 25/13 A3002 RMK A01 T02470133  RH  051%=      5-min Rain = 0
KSM1 110940Z 20006KT 25/13 A3002 RMK A01 T02500132  RH  050%=      5-min Rain = 0
KSM1 110945Z 20005KT 25/13 A3002 RMK A01 T02510131  RH  049%=      5-min Rain = 0
KSM1 110950Z 20005KT 25/13 A3002 RMK A01 T02530130  RH  048%=      5-min Rain = 0
KSM1 110955Z 20005KT 25/13 A3002 RMK A01 T02530130  RH  048%=      5-min Rain = 0
KSM1 111000Z 20006KT 25/13 A3002 RMK A01 T02500130  RH  049%=      5-min Rain = 0
KSM1 111005Z 19006KT 25/13 A3002 RMK A01 T02490128  RH  049%=      5-min Rain = 0
KSM1 111010Z 19006KT 25/13 A3002 RMK A01 T02490127  RH  049%=      5-min Rain = 0
KSM1 111015Z 18006KT 25/13 A3002 RMK A01 T02490126  RH  048%=      5-min Rain = 0
KSM1 111020Z 16004KT 25/13 A3002 RMK A01 T02460130  RH  050%=      5-min Rain = 0
KSM1 111025Z 17004KT 24/13 A3002 RMK A01 T02380134  RH  054%=      5-min Rain = 0
KSM1 111030Z 17004KT 23/13 A3002 RMK A01 T02330134  RH  056%=      5-min Rain = 0
KSM1 111035Z 19004KT 23/13 A3002 RMK A01 T02300134  RH  057%=      5-min Rain = 0
KSM1 111040Z 21004KT 23/13 A3002 RMK A01 T02300131  RH  056%=      5-min Rain = 0
KSM1 111045Z 20005KT 24/13 A3002 RMK A01 T02370128  RH  053%=      5-min Rain = 0
KSM1 111050Z 19005KT 24/13 A3002 RMK A01 T02400127  RH  051%=      5-min Rain = 0
KSM1 111055Z 17005KT 24/13 A3002 RMK A01 T02390127  RH  052%=      5-min Rain = 0
KSM1 111100Z 17005KT 24/13 A3002 RMK A01 T02360129  RH  053%=      5-min Rain = 0
KSM1 111105Z 17005KT 23/13 A3002 RMK A01 T02320130  RH  055%=      5-min Rain = 0
KSM1 111110Z 16004KT 23/13 A3002 RMK A01 T02290132  RH  056%=      5-min Rain = 0
KSM1 111115Z 14005KT 23/13 A3002 RMK A01 T02250132  RH  058%=      5-min Rain = 0
KSM1 111120Z 14005KT 22/13 A3002 RMK A01 T02220133  RH  059%=      5-min Rain = 0
KSM1 111125Z 14005KT 22/13 A3002 RMK A01 T02210134  RH  060%=      5-min Rain = 0
KSM1 111130Z 15004KT 22/13 A3002 RMK A01 T02190134  RH  061%=      5-min Rain = 0
KSM1 111135Z 16004KT 22/13 A3002 RMK A01 T02180133  RH  061%=      5-min Rain = 0
KSM1 111140Z 16003KT 22/13 A3003 RMK A01 T02170133  RH  061%=      5-min Rain = 0
KSM1 111145Z 17002KT 22/13 A3003 RMK A01 T02170134  RH  062%=      5-min Rain = 0
KSM1 111150Z 18003KT 22/13 A3003 RMK A01 T02170134  RH  062%=      5-min Rain = 0
KSM1 111155Z 17003KT 21/13 A3003 RMK A01 T02140133  RH  062%=      5-min Rain = 0
KSM1 111200Z 15004KT 21/13 A3003 RMK A01 T02070133  RH  065%=      5-min Rain = 0
KSM1 111205Z 14004KT 21/13 A3004 RMK A01 T02070133  RH  065%=      5-min Rain = 0
KSM1 111210Z 13005KT 21/13 A3003 RMK A01 T02080133  RH  065%=      5-min Rain = 0
KSM1 111215Z 13005KT 21/13 A3004 RMK A01 T02110132  RH  063%=      5-min Rain = 0
KSM1 111220Z 13005KT 21/13 A3004 RMK A01 T02130131  RH  062%=      5-min Rain = 0
KSM1 111225Z 12004KT 22/13 A3004 RMK A01 T02150131  RH  061%=      5-min Rain = 0
KSM1 111230Z 11004KT 22/13 A3004 RMK A01 T02150134  RH  063%=      5-min Rain = 0
KSM1 111235Z 10005KT 21/14 A3004 RMK A01 T02120136  RH  064%=      5-min Rain = 0
KSM1 111240Z 10005KT 22/14 A3005 RMK A01 T02160136  RH  063%=      5-min Rain = 0
KSM1 111245Z 11004KT 22/14 A3005 RMK A01 T02200137  RH  062%=      5-min Rain = 0
KSM1 111250Z 12004KT 22/14 A3005 RMK A01 T02220138  RH  061%=      5-min Rain = 0
KSM1 111255Z 12004KT 22/14 A3005 RMK A01 T02240138  RH  061%=      5-min Rain = 0
KSM1 111300Z 12003KT 23/14 A3005 RMK A01 T02250139  RH  061%=      5-min Rain = 0
KSM1 111305Z 13004KT 23/14 A3005 RMK A01 T02250141  RH  061%=      5-min Rain = 0
KSM1 111310Z 14003KT 23/14 A3005 RMK A01 T02260141  RH  061%=      5-min Rain = 0
KSM1 111315Z 14004KT 23/14 A3005 RMK A01 T02280142  RH  061%=      5-min Rain = 0
KSM1 111320Z 14004KT 23/14 A3005 RMK A01 T02310143  RH  060%=      5-min Rain = 0
KSM1 111325Z 14004KT 24/15 A3005 RMK A01 T02350146  RH  060%=      5-min Rain = 0
KSM1 111330Z 13005KT 24/14 A3005 RMK A01 T02410142  RH  056%=      5-min Rain = 0
KSM1 111335Z 13006KT 25/14 A3005 RMK A01 T02460141  RH  054%=      5-min Rain = 0
KSM1 111340Z 14005KT 25/14 A3005 RMK A01 T02490141  RH  053%=      5-min Rain = 0
KSM1 111345Z 16006KT 25/14 A3005 RMK A01 T02540137  RH  050%=      5-min Rain = 0
KSM1 111350Z 16007KT 26/14 A3005 RMK A01 T02580136  RH  049%=      5-min Rain = 0
KSM1 111355Z 16008KT 26/14 A3005 RMK A01 T02610136  RH  048%=      5-min Rain = 0
KSM1 111400Z 17009KT 26/13 A3006 RMK A01 T02630134  RH  047%=      5-min Rain = 0
KSM1 111405Z 16009KT 27/14 A3006 RMK A01 T02660135  RH  046%=      5-min Rain = 0
KSM1 111410Z 16009KT 27/14 A3006 RMK A01 T02680135  RH  046%=      5-min Rain = 0
KSM1 111415Z 16009KT 27/14 A3006 RMK A01 T02700135  RH  045%=      5-min Rain = 0
KSM1 111420Z 17009KT 27/14 A3006 RMK A01 T02730136  RH  045%=      5-min Rain = 0
KSM1 111425Z 17009KT 28/14 A3006 RMK A01 T02750137  RH  044%=      5-min Rain = 0
KSM1 111430Z 17010G15KT 28/14 A3006 RMK A01 T02780137  RH  044%=      5-min Rain = 0
KSM1 111435Z 17012KT 28/14 A3006 RMK A01 T02790135  RH  043%=      5-min Rain = 0
KSM1 111440Z 17011KT 28/14 A3006 RMK A01 T02810136  RH  042%=      5-min Rain = 0
KSM1 111445Z 17009G14KT 29/14 A3006 RMK A01 T02850138  RH  042%=      5-min Rain = 0
KSM1 111450Z 16011KT 29/14 A3006 RMK A01 T02870136  RH  041%=      5-min Rain = 0
KSM1 111455Z 17011KT 29/14 A3006 RMK A01 T02870136  RH  041%=      5-min Rain = 0
KSM1 111500Z 17011KT 29/14 A3007 RMK A01 T02890137  RH  041%=      5-min Rain = 0
KSM1 111505Z 17010KT 29/14 A3007 RMK A01 T02910137  RH  041%=      5-min Rain = 0
KSM1 111510Z 16010KT 29/14 A3007 RMK A01 T02940140  RH  041%=      5-min Rain = 0
KSM1 111515Z 17011KT 30/14 A3007 RMK A01 T02960139  RH  040%=      5-min Rain = 0
KSM1 111520Z 16010KT 30/14 A3007 RMK A01 T02990139  RH  039%=      5-min Rain = 0
KSM1 111525Z 17009KT 30/14 A3007 RMK A01 T03010138  RH  039%=      5-min Rain = 0
KSM1 111530Z 16010KT 30/14 A3007 RMK A01 T03030138  RH  038%=      5-min Rain = 0
KSM1 111535Z 16010KT 30/14 A3007 RMK A01 T03040138  RH  038%=      5-min Rain = 0
KSM1 111540Z 17010KT 31/14 A3008 RMK A01 T03070139  RH  037%=      5-min Rain = 0
KSM1 111545Z 16010G15KT 31/14 A3008 RMK A01 T03100139  RH  037%=      5-min Rain = 0
KSM1 111550Z 16010KT 31/14 A3008 RMK A01 T03100138  RH  037%=      5-min Rain = 0
KSM1 111555Z 16009G14KT 31/14 A3008 RMK A01 T03120137  RH  036%=      5-min Rain = 0
KSM1 111600Z 18009KT 32/14 A3008 RMK A01 T03150136  RH  035%=      5-min Rain = 0
KSM1 111605Z 18009KT 32/14 A3008 RMK A01 T03170136  RH  035%=      5-min Rain = 0
KSM1 111610Z 17009KT 32/14 A3008 RMK A01 T03190139  RH  035%=      5-min Rain = 0
KSM1 111615Z 17010KT 32/14 A3008 RMK A01 T03200137  RH  034%=      5-min Rain = 0
KSM1 111620Z 18010KT 32/14 A3008 RMK A01 T03220137  RH  034%=      5-min Rain = 0
KSM1 111625Z 16009G14KT 32/14 A3008 RMK A01 T03220138  RH  034%=      5-min Rain = 0
KSM1 111630Z 17011KT 32/14 A3008 RMK A01 T03230138  RH  034%=      5-min Rain = 0
KSM1 111635Z 17009KT 33/14 A3008 RMK A01 T03260138  RH  033%=      5-min Rain = 0
KSM1 111640Z 17011G16KT 33/14 A3008 RMK A01 T03290137  RH  033%=      5-min Rain = 0
KSM1 111645Z 19009G15KT 33/14 A3008 RMK A01 T03280135  RH  032%=      5-min Rain = 0
KSM1 111650Z 18010KT 33/13 A3007 RMK A01 T03310134  RH  032%=      5-min Rain = 0
KSM1 111655Z 18008KT 33/13 A3007 RMK A01 T03310132  RH  031%=      5-min Rain = 0
KSM1 111700Z 18007KT 33/14 A3007 RMK A01 T03340135  RH  031%=      5-min Rain = 0
KSM1 111705Z 16008G13KT 34/13 A3007 RMK A01 T03360134  RH  031%=      5-min Rain = 0
KSM1 111710Z 18008G13KT 34/13 A3007 RMK A01 T03370132  RH  030%=      5-min Rain = 0
KSM1 111715Z 20008KT 34/13 A3007 RMK A01 T03380129  RH  030%=      5-min Rain = 0
KSM1 111720Z 20006KT 34/13 A3006 RMK A01 T03400131  RH  029%=      5-min Rain = 0
KSM1 111725Z 19008G13KT 35/13 A3006 RMK A01 T03450132  RH  029%=      5-min Rain = 0
KSM1 111730Z 18005G11KT 34/13 A3006 RMK A01 T03420130  RH  029%=      5-min Rain = 0
KSM1 111735Z 18006KT 34/13 A3006 RMK A01 T03430130  RH  029%=      5-min Rain = 0
KSM1 111740Z 19006KT 35/13 A3006 RMK A01 T03470130  RH  028%=      5-min Rain = 0
KSM1 111745Z 20006KT 35/13 A3006 RMK A01 T03460130  RH  028%=      5-min Rain = 0
KSM1 111750Z 18005G10KT 35/13 A3005 RMK A01 T03490130  RH  028%=      5-min Rain = 0
KSM1 111755Z 15005G11KT 35/13 A3005 RMK A01 T03520131  RH  028%=      5-min Rain = 0
KSM1 111800Z 14007KT 35/13 A3005 RMK A01 T03540132  RH  027%=      5-min Rain = 0
KSM1 111805Z 14007G12KT 35/13 A3005 RMK A01 T03530129  RH  027%=      5-min Rain = 0
KSM1 111810Z 16005G10KT 35/13 A3005 RMK A01 T03520127  RH  027%=      5-min Rain = 0
KSM1 111815Z 17005G12KT 35/13 A3004 RMK A01 T03530129  RH  027%=      5-min Rain = 0
KSM1 111820Z 19008KT 36/13 A3004 RMK A01 T03560129  RH  027%=      5-min Rain = 0
KSM1 111825Z 14004KT 36/13 A3004 RMK A01 T03630131  RH  026%=      5-min Rain = 0
KSM1 111830Z 16007G12KT 36/13 A3003 RMK A01 T03600130  RH  026%=      5-min Rain = 0
KSM1 111835Z 13008G13KT 36/12 A3003 RMK A01 T03630123  RH  025%=      5-min Rain = 0
KSM1 111840Z 13008KT 36/12 A3003 RMK A01 T03640123  RH  025%=      5-min Rain = 0
KSM1 111845Z 13007G12KT 36/12 A3003 RMK A01 T03630123  RH  025%=      5-min Rain = 0
KSM1 111850Z 12008G17KT 36/13 A3002 RMK A01 T03640125  RH  025%=      5-min Rain = 0
KSM1 111855Z 15005G13KT 36/13 A3002 RMK A01 T03630126  RH  025%=      5-min Rain = 0
KSM1 111900Z 15006G11KT 37/13 A3002 RMK A01 T03660125  RH  025%=      5-min Rain = 0
KSM1 111905Z 14008G13KT 36/13 A3002 RMK A01 T03640125  RH  025%=      5-min Rain = 0
KSM1 111910Z 17008KT 37/12 A3001 RMK A01 T03690119  RH  023%=      5-min Rain = 0
KSM1 111915Z 17008KT 38/12 A3001 RMK A01 T03760119  RH  022%=      5-min Rain = 0
KSM1 111920Z 16007G13KT 37/12 A3001 RMK A01 T03710118  RH  023%=      5-min Rain = 0
KSM1 111925Z 16011KT 37/12 A30 RMK A01 T03740121  RH  023%=      5-min Rain = 0
KSM1 111930Z 15007G15KT 37/12 A30 RMK A01 T03740117  RH  022%=      5-min Rain = 0
KSM1 111935Z 12013G19KT 37/12 A30 RMK A01 T03730118  RH  022%=      5-min Rain = 0
KSM1 111940Z 14008G14KT 37/12 A2999 RMK A01 T03730119  RH  023%=      5-min Rain = 0
KSM1 111945Z 14011KT 37/12 A2999 RMK A01 T03740117  RH  022%=      5-min Rain = 0
KSM1 111950Z 16006KT 37/12 A2999 RMK A01 T03720115  RH  022%=      5-min Rain = 0
KSM1 111955Z 14009KT 38/12 A2998 RMK A01 T03750117  RH  022%=      5-min Rain = 0
KSM1 112000Z 13011G16KT 38/11 A2998 RMK A01 T03770114  RH  021%=      5-min Rain = 0
KSM1 112005Z 15010KT 38/11 A2998 RMK A01 T03770114  RH  021%=      5-min Rain = 0
KSM1 112010Z 15008KT 38/11 A2998 RMK A01 T03770112  RH  021%=      5-min Rain = 0
KSM1 112015Z 12010G16KT 38/11 A2997 RMK A01 T03750109  RH  021%=      5-min Rain = 0
KSM1 112020Z 12011KT 38/11 A2997 RMK A01 T03760108  RH  021%=      5-min Rain = 0
KSM1 112025Z 13010G17KT 38/11 A2997 RMK A01 T03790105  RH  020%=      5-min Rain = 0
KSM1 112030Z 16009G17KT 38/11 A2997 RMK A01 T03770106  RH  020%=      5-min Rain = 0
KSM1 112035Z 16008G19KT 38/11 A2997 RMK A01 T03770105  RH  020%=      5-min Rain = 0
KSM1 112040Z 18011G18KT 38/10 A2997 RMK A01 T03800103  RH  020%=      5-min Rain = 0
KSM1 112045Z 16009KT 38/11 A2997 RMK A01 T03840105  RH  019%=      5-min Rain = 0
KSM1 112050Z 15010G15KT 38/10 A2996 RMK A01 T03770104  RH  020%=      5-min Rain = 0
KSM1 112055Z 17007G12KT 37/10 A2996 RMK A01 T03670103  RH  021%=      5-min Rain = 0
KSM1 112100Z 12013G19KT 37/10 A2996 RMK A01 T03690103  RH  021%=      5-min Rain = 0
KSM1 112105Z 11009KT 37/10 A2996 RMK A01 T03700102  RH  021%=      5-min Rain = 0
KSM1 112110Z 14012G19KT 38/11 A2996 RMK A01 T03760106  RH  020%=      5-min Rain = 0
KSM1 112115Z 15010G16KT 38/11 A2996 RMK A01 T03760105  RH  020%=      5-min Rain = 0
KSM1 112120Z 16008KT 37/10 A2995 RMK A01 T03670101  RH  021%=      5-min Rain = 0
KSM1 112125Z 13010G15KT 37/10 A2995 RMK A01 T03650102  RH  021%=      5-min Rain = 0
KSM1 112130Z 14009KT 38/10 A2995 RMK A01 T03760101  RH  020%=      5-min Rain = 0
KSM1 112135Z 12010G16KT 38/10 A2995 RMK A01 T03800101  RH  019%=      5-min Rain = 0
KSM1 112140Z 13006G12KT 38/10 A2995 RMK A01 T03770101  RH  020%=      5-min Rain = 0
KSM1 112145Z 16010G16KT 38/10 A2995 RMK A01 T03750100  RH  020%=      5-min Rain = 0
KSM1 112150Z 17012KT 38/10 A2995 RMK A01 T03780101  RH  019%=      5-min Rain = 0
KSM1 112155Z 17010G15KT 37/10 A2995 RMK A01 T03720097  RH  020%=      5-min Rain = 0
KSM1 112200Z 13010KT 38/10 A2994 RMK A01 T03770095  RH  019%=      5-min Rain = 0
KSM1 112205Z 15012KT 38/10 A2994 RMK A01 T03800095  RH  019%=      5-min Rain = 0
KSM1 112210Z 12007KT 38/10 A2994 RMK A01 T03790095  RH  019%=      5-min Rain = 0
KSM1 112215Z 15011G17KT 38/10 A2994 RMK A01 T03800097  RH  019%=      5-min Rain = 0
KSM1 112220Z 16010G16KT 38/09 A2994 RMK A01 T03780093  RH  018%=      5-min Rain = 0
KSM1 112225Z 14009KT 38/09 A2994 RMK A01 T03780094  RH  018%=      5-min Rain = 0
KSM1 112230Z 14012G18KT 38/09 A2994 RMK A01 T03800093  RH  018%=      5-min Rain = 0
KSM1 112235Z 16011G16KT 38/09 A2994 RMK A01 T03750093  RH  019%=      5-min Rain = 0
KSM1 112240Z 15006KT 38/09 A2993 RMK A01 T03760092  RH  019%=      5-min Rain = 0
KSM1 112245Z 12010G17KT 38/09 A2993 RMK A01 T03780094  RH  019%=      5-min Rain = 0
KSM1 112250Z 14016KT 38/10 A2993 RMK A01 T03780096  RH  019%=      5-min Rain = 0
KSM1 112255Z 14012G19KT 38/10 A2993 RMK A01 T03760098  RH  019%=      5-min Rain = 0
KSM1 112300Z 13013KT 38/09 A2993 RMK A01 T03760093  RH  019%=      5-min Rain = 0
KSM1 112305Z 14012G17KT 38/09 A2993 RMK A01 T03750094  RH  019%=      5-min Rain = 0
KSM1 112310Z 12009G16KT 38/09 A2993 RMK A01 T03750094  RH  019%=      5-min Rain = 0
KSM1 112315Z 15013G18KT 38/10 A2993 RMK A01 T03760095  RH  019%=      5-min Rain = 0
KSM1 112320Z 15012KT 38/10 A2992 RMK A01 T03750095  RH  019%=      5-min Rain = 0
KSM1 112325Z 15012G17KT 37/09 A2993 RMK A01 T03740091  RH  019%=      5-min Rain = 0
KSM1 112330Z 15012KT 37/09 A2992 RMK A01 T03730094  RH  019%=      5-min Rain = 0
KSM1 112335Z 14012G17KT 37/09 A2992 RMK A01 T03710092  RH  019%=      5-min Rain = 0
KSM1 112340Z 13011G17KT 37/09 A2992 RMK A01 T03700094  RH  019%=      5-min Rain = 0
KSM1 112345Z 16014G24KT 37/09 A2992 RMK A01 T03720091  RH  019%=      5-min Rain = 0
KSM1 112350Z 17012G19KT 37/09 A2992 RMK A01 T03710090  RH  019%=      5-min Rain = 0
KSM1 112355Z 15009KT 37/09 A2992 RMK A01 T03710094  RH  019%=      5-min Rain = 0
KSM1 120000Z 14012G17KT 37/09 A2992 RMK A01 T03690093  RH  019%=      5-min Rain = 0
KSM1 120005Z 15013G20KT 37/09 A2992 RMK A01 T03680092  RH  019%=      5-min Rain = 0
KSM1 120010Z 14012KT 37/09 A2992 RMK A01 T03660092  RH  020%=      5-min Rain = 0
KSM1 120015Z 14013KT 37/09 A2992 RMK A01 T03650092  RH  020%=      5-min Rain = 0
KSM1 120020Z 14012G17KT 36/09 A2992 RMK A01 T03630090  RH  020%=      5-min Rain = 0
KSM1 120025Z 13011KT 36/09 A2992 RMK A01 T03600090  RH  020%=      5-min Rain = 0
KSM1 120030Z 15009KT 36/09 A2992 RMK A01 T03560091  RH  020%=      5-min Rain = 0
KSM1 120035Z 15008KT 35/09 A2992 RMK A01 T03530091  RH  021%=      5-min Rain = 0
KSM1 120040Z 16007KT 35/09 A2992 RMK A01 T03500090  RH  021%=      5-min Rain = 0
KSM1 120045Z 14010KT 35/09 A2992 RMK A01 T03480088  RH  021%=      5-min Rain = 0
KSM1 120050Z 14008KT 35/09 A2992 RMK A01 T03470091  RH  021%=      5-min Rain = 0
KSM1 120055Z 14008KT 34/09 A2992 RMK A01 T03440093  RH  022%=      5-min Rain = 0
KSM1 120100Z 14007KT 34/09 A2993 RMK A01 T03410094  RH  023%=      5-min Rain = 0
KSM1 120105Z 16008KT 34/09 A2993 RMK A01 T03380092  RH  023%=      5-min Rain = 0
KSM1 120110Z 15007KT 34/09 A2993 RMK A01 T03380090  RH  022%=      5-min Rain = 0
KSM1 120115Z 15006KT 34/09 A2993 RMK A01 T03360091  RH  023%=      5-min Rain = 0
KSM1 120120Z 15007KT 33/09 A2993 RMK A01 T03340092  RH  023%=      5-min Rain = 0
KSM1 120125Z 16005KT 33/09 A2994 RMK A01 T03310094  RH  024%=      5-min Rain = 0
KSM1 120130Z 19004KT 33/10 A2994 RMK A01 T03280095  RH  025%=      5-min Rain = 0
KSM1 120135Z 25006KT 33/10 A2995 RMK A01 T03300096  RH  024%=      5-min Rain = 0
KSM1 120140Z 26007KT 33/11 A2995 RMK A01 T03310107  RH  026%=      5-min Rain = 0
KSM1 120145Z 28008KT 33/11 A2995 RMK A01 T03290111  RH  027%=      5-min Rain = 0
KSM1 120150Z 28004KT 33/11 A2996 RMK A01 T03260113  RH  028%=      5-min Rain = 0
KSM1 120155Z 31004KT 32/12 A2996 RMK A01 T03220115  RH  029%=      5-min Rain = 0
KSM1 120200Z 30005KT 32/12 A2996 RMK A01 T03160117  RH  031%=      5-min Rain = 0
KSM1 120205Z 30006KT 31/12 A2996 RMK A01 T03140118  RH  031%=      5-min Rain = 0
KSM1 120210Z 31007KT 31/12 A2996 RMK A01 T03110118  RH  032%=      5-min Rain = 0
KSM1 120215Z 32005KT 31/12 A2996 RMK A01 T03080117  RH  032%=      5-min Rain = 0
KSM1 120220Z 33004KT 31/12 A2997 RMK A01 T03050117  RH  032%=      5-min Rain = 0
KSM1 120225Z 33005KT 30/12 A2997 RMK A01 T03030116  RH  033%=      5-min Rain = 0
KSM1 120230Z 32005KT 30/12 A2997 RMK A01 T03020117  RH  033%=      5-min Rain = 0
KSM1 120235Z 32004KT 30/12 A2998 RMK A01 T03010118  RH  034%=      5-min Rain = 0
KSM1 120240Z 34004KT 30/12 A2998 RMK A01 T02980119  RH  034%=      5-min Rain = 0
KSM1 120245Z 01005KT 30/12 A2998 RMK A01 T02950119  RH  035%=      5-min Rain = 0
KSM1 120250Z 01007KT 30/12 A2998 RMK A01 T02950121  RH  036%=      5-min Rain = 0
KSM1 120255Z 03005KT 30/12 A2998 RMK A01 T02950124  RH  036%=      5-min Rain = 0
KSM1 120300Z 03005KT 30/12 A2999 RMK A01 T02950123  RH  036%=      5-min Rain = 0
KSM1 120305Z 03004KT 30/12 A2999 RMK A01 T02950124  RH  036%=      5-min Rain = 0
KSM1 120310Z 03006KT 29/12 A2999 RMK A01 T02930124  RH  037%=      5-min Rain = 0
KSM1 120315Z 03006KT 30/12 A30 RMK A01 T02950123  RH  036%=      5-min Rain = 0
KSM1 120320Z 03006KT 29/12 A30 RMK A01 T02940124  RH  036%=      5-min Rain = 0
KSM1 120325Z 03006KT 29/12 A30 RMK A01 T02930124  RH  037%=      5-min Rain = 0
KSM1 120330Z 03006KT 29/13 A30 RMK A01 T02910126  RH  038%=      5-min Rain = 0
KSM1 120335Z 03007KT 29/13 A30 RMK A01 T02900128  RH  038%=      5-min Rain = 0
KSM1 120340Z 04007KT 29/13 A30 RMK A01 T02880130  RH  039%=      5-min Rain = 0
KSM1 120345Z 04007KT 29/13 A30 RMK A01 T02850130  RH  040%=      5-min Rain = 0
KSM1 120350Z 04008KT 29/13 A30 RMK A01 T02850129  RH  040%=      5-min Rain = 0
KSM1 120355Z 04007KT 28/13 A30 RMK A01 T02840129  RH  040%=      5-min Rain = 0
KSM1 120400Z 04006KT 28/13 A30 RMK A01 T02810130  RH  041%=      5-min Rain = 0
KSM1 120405Z 04007KT 28/13 A30 RMK A01 T02800130  RH  041%=      5-min Rain = 0
KSM1 120410Z 04006KT 28/13 A30 RMK A01 T02790130  RH  041%=      5-min Rain = 0
KSM1 120415Z 04005KT 28/13 A30 RMK A01 T02770129  RH  042%=      5-min Rain = 0
KSM1 120420Z 04004KT 28/13 A30 RMK A01 T02750129  RH  042%=      5-min Rain = 0
KSM1 120425Z 05005KT 27/13 A30 RMK A01 T02740130  RH  043%=      5-min Rain = 0
KSM1 120430Z 09003KT 27/13 A30 RMK A01 T02720131  RH  043%=      5-min Rain = 0
KSM1 120435Z 07004KT 27/13 A30 RMK A01 T02710131  RH  044%=      5-min Rain = 0
KSM1 120440Z 10004KT 27/13 A30 RMK A01 T02690131  RH  044%=      5-min Rain = 0
KSM1 120445Z 12003KT 27/13 A30 RMK A01 T02690129  RH  044%=      5-min Rain = 0
KSM1 120450Z 13004KT 27/13 A30 RMK A01 T02680129  RH  044%=      5-min Rain = 0
KSM1 120455Z 15005KT 27/13 A30 RMK A01 T02680129  RH  044%=      5-min Rain = 0

Page generated in 0.029 seconds.